Time;durP1;ratioP1;P1;durP2;ratioP2;P2;SDS_P1;SDS_P2;PMS_P1;PMS_P2;Temp;Humidity;BMP_temperature;BMP_pressure;BME280_temperature;BME280_humidity;BME280_pressure;Samples;Min_cycle;Max_cycle;Signal;HPM_P1;HPM_P2
2020/12/26 00:00:38;;;;;;;2.88;1.70;;;18.80;56.70;;;;;;5036707;28;20147;-63
2020/12/26 00:03:04;;;;;;;2.72;1.63;;;18.80;56.60;;;;;;5046878;28;20041;-63
2020/12/26 00:05:29;;;;;;;3.13;1.70;;;18.90;56.70;;;;;;5035855;28;20519;-62
2020/12/26 00:07:54;;;;;;;3.58;1.95;;;18.90;56.70;;;;;;5047337;28;20067;-63
2020/12/26 00:10:20;;;;;;;2.22;1.40;;;18.90;56.60;;;;;;5042249;28;20653;-63
2020/12/26 00:12:47;;;;;;;5.15;1.92;;;18.90;56.60;;;;;;5025116;28;20042;-63
2020/12/26 00:15:12;;;;;;;2.92;1.52;;;18.90;56.50;;;;;;5026003;28;20034;-64
2020/12/26 00:17:38;;;;;;;4.65;1.73;;;18.90;56.50;;;;;;5026411;28;20107;-63
2020/12/26 00:20:04;;;;;;;2.83;1.35;;;18.90;56.40;;;;;;5034892;28;20096;-62
2020/12/26 00:22:32;;;;;;;2.38;1.60;;;18.90;56.40;;;;;;5034751;28;20034;-63
2020/12/26 00:24:58;;;;;;;2.58;1.60;;;18.90;56.30;;;;;;5027503;28;20037;-63
2020/12/26 00:27:23;;;;;;;3.25;1.52;;;18.90;56.20;;;;;;5046163;28;20385;-63
2020/12/26 00:29:49;;;;;;;3.72;1.35;;;18.90;56.20;;;;;;5031455;28;20040;-63
2020/12/26 00:32:14;;;;;;;2.78;1.70;;;18.90;56.20;;;;;;5034232;28;20120;-62
2020/12/26 00:34:40;;;;;;;3.60;1.45;;;18.90;56.10;;;;;;5034180;28;20411;-64
2020/12/26 00:37:05;;;;;;;2.58;1.30;;;18.90;56.00;;;;;;5041866;28;20033;-62
2020/12/26 00:39:31;;;;;;;4.18;1.45;;;18.90;56.00;;;;;;5037906;28;20088;-61
2020/12/26 00:41:56;;;;;;;2.10;1.42;;;18.90;56.00;;;;;;5029432;28;20040;-62
2020/12/26 00:44:22;;;;;;;1.92;1.25;;;18.90;56.00;;;;;;5037351;28;20064;-63
2020/12/26 00:46:47;;;;;;;2.28;1.40;;;18.90;55.90;;;;;;5039348;28;20377;-63
2020/12/26 00:49:13;;;;;;;3.15;1.40;;;18.90;55.90;;;;;;5027659;28;20044;-62
2020/12/26 00:51:38;;;;;;;4.53;1.50;;;18.90;55.90;;;;;;5026563;28;20045;-63
2020/12/26 00:54:04;;;;;;;2.35;1.60;;;18.90;55.80;;;;;;5044628;28;20036;-63
2020/12/26 00:56:35;;;;;;;1.65;1.20;;;18.90;55.80;;;;;;5033106;28;20029;-63
2020/12/26 00:59:00;;;;;;;2.67;1.15;;;18.90;55.70;;;;;;5034331;28;20039;-63
2020/12/26 01:01:26;;;;;;;2.03;1.05;;;18.90;55.80;;;;;;5029719;28;20411;-63
2020/12/26 01:03:51;;;;;;;1.67;1.10;;;18.90;55.80;;;;;;5029582;28;20049;-63
2020/12/26 01:06:17;;;;;;;2.28;1.42;;;18.90;55.70;;;;;;5028191;28;20095;-62
2020/12/26 01:08:42;;;;;;;1.48;1.08;;;18.90;55.60;;;;;;5040355;28;20560;-63
2020/12/26 01:11:08;;;;;;;1.48;0.90;;;18.90;55.60;;;;;;5036492;28;20037;-63
2020/12/26 01:13:34;;;;;;;1.60;1.17;;;18.80;55.50;;;;;;5038371;28;20029;-63
2020/12/26 01:15:59;;;;;;;1.83;1.15;;;18.90;55.50;;;;;;5042168;28;20779;-63
2020/12/26 01:18:25;;;;;;;1.77;1.02;;;18.90;55.50;;;;;;5030197;28;20514;-63
2020/12/26 01:20:50;;;;;;;1.60;1.20;;;18.90;55.50;;;;;;5030301;28;20038;-63
2020/12/26 01:23:15;;;;;;;1.40;0.90;;;18.80;55.40;;;;;;5026486;28;20029;-62
2020/12/26 01:25:41;;;;;;;2.08;1.15;;;18.90;55.50;;;;;;5033694;28;20044;-62
2020/12/26 01:28:06;;;;;;;2.28;1.02;;;18.90;55.40;;;;;;5025318;28;20404;-62
2020/12/26 01:30:32;;;;;;;1.05;0.88;;;18.90;55.40;;;;;;5036218;28;20048;-62
2020/12/26 01:32:57;;;;;;;2.00;0.95;;;18.80;55.30;;;;;;5038684;28;20040;-62
2020/12/26 01:35:23;;;;;;;1.98;1.23;;;18.80;55.40;;;;;;5032536;28;20573;-62
2020/12/26 01:37:48;;;;;;;1.88;1.10;;;18.80;55.40;;;;;;5033845;28;20042;-62
2020/12/26 01:40:14;;;;;;;2.00;0.98;;;18.80;55.30;;;;;;5033926;28;20037;-62
2020/12/26 01:42:39;;;;;;;2.20;0.80;;;18.80;55.30;;;;;;5026509;28;20411;-62
2020/12/26 01:45:05;;;;;;;2.40;1.10;;;18.80;55.30;;;;;;5033744;28;20034;-63
2020/12/26 01:47:30;;;;;;;1.65;1.08;;;18.80;55.30;;;;;;5038669;28;20032;-63
2020/12/26 01:49:56;;;;;;;0.93;0.80;;;18.80;55.30;;;;;;5036598;28;20707;-64
2020/12/26 01:52:23;;;;;;;1.48;1.10;;;18.80;55.30;;;;;;5028189;28;20045;-64
2020/12/26 01:54:48;;;;;;;2.38;1.00;;;18.80;55.20;;;;;;5042198;28;20576;-63
2020/12/26 01:57:14;;;;;;;1.50;1.02;;;18.80;55.20;;;;;;5025753;28;20041;-63
2020/12/26 01:59:39;;;;;;;2.67;1.02;;;18.80;55.20;;;;;;5035276;28;20029;-64
2020/12/26 02:02:08;;;;;;;2.00;1.00;;;18.80;55.20;;;;;;5035685;28;20592;-64
2020/12/26 02:04:34;;;;;;;2.03;0.93;;;18.80;55.20;;;;;;5041511;28;20026;-63
2020/12/26 02:06:59;;;;;;;1.10;0.80;;;18.80;55.20;;;;;;5027912;28;20036;-63
2020/12/26 02:09:25;;;;;;;2.55;1.10;;;18.80;55.10;;;;;;5032591;28;20551;-64
2020/12/26 02:11:50;;;;;;;1.05;0.75;;;18.70;55.10;;;;;;5034667;28;20707;-63
2020/12/26 02:14:16;;;;;;;1.85;0.90;;;18.80;55.20;;;;;;5028474;28;20053;-63
2020/12/26 02:16:51;;;;;;;1.38;1.15;;;18.70;55.20;;;;;;5043300;28;20075;-63
2020/12/26 02:19:18;;;;;;;1.95;1.15;;;18.70;55.10;;;;;;5028648;28;20056;-63
2020/12/26 02:21:43;;;;;;;1.42;0.90;;;18.70;55.20;;;;;;5027274;28;20117;-63
2020/12/26 02:24:09;;;;;;;1.67;0.80;;;18.70;55.20;;;;;;5033081;28;20575;-62
2020/12/26 02:26:35;;;;;;;1.17;0.80;;;18.70;55.20;;;;;;5037102;28;20099;-62
2020/12/26 02:29:00;;;;;;;1.40;0.80;;;18.60;55.20;;;;;;5025847;28;20034;-62
2020/12/26 02:31:26;;;;;;;2.60;0.88;;;18.60;55.30;;;;;;5028349;28;20041;-62
2020/12/26 02:33:51;;;;;;;1.20;0.85;;;18.60;55.40;;;;;;5033319;28;20107;-62
2020/12/26 02:36:17;;;;;;;1.52;0.80;;;18.60;55.30;;;;;;5040944;28;20034;-62
2020/12/26 02:38:42;;;;;;;1.23;0.90;;;18.60;55.40;;;;;;5030986;28;20242;-62
2020/12/26 02:41:08;;;;;;;1.88;0.93;;;18.60;55.40;;;;;;5025414;28;20065;-62
2020/12/26 02:43:34;;;;;;;1.33;1.00;;;18.60;55.30;;;;;;5039047;28;20040;-62
2020/12/26 02:45:59;;;;;;;1.00;0.68;;;18.60;55.20;;;;;;5034402;28;20037;-62
2020/12/26 02:48:26;;;;;;;2.03;0.80;;;18.60;54.90;;;;;;5040742;28;20032;-62
2020/12/26 02:50:51;;;;;;;1.90;1.00;;;18.70;54.90;;;;;;5039379;28;20037;-61
2020/12/26 02:53:17;;;;;;;1.30;1.02;;;18.70;54.90;;;;;;5024744;28;20026;-62
2020/12/26 02:55:42;;;;;;;1.35;0.88;;;18.60;54.90;;;;;;5041556;28;20530;-62
2020/12/26 02:58:08;;;;;;;0.80;0.70;;;18.60;54.90;;;;;;5038693;28;20033;-63
2020/12/26 03:00:33;;;;;;;1.30;0.82;;;18.60;54.80;;;;;;5038174;28;20039;-62
2020/12/26 03:02:59;;;;;;;3.35;1.00;;;18.60;54.90;;;;;;5026447;28;20037;-63
2020/12/26 03:05:24;;;;;;;0.73;0.63;;;18.60;54.80;;;;;;5042161;28;20123;-62
2020/12/26 03:07:50;;;;;;;2.75;1.00;;;18.60;54.70;;;;;;5035408;28;20033;-62
2020/12/26 03:10:15;;;;;;;1.52;1.20;;;18.50;54.60;;;;;;5034872;28;20047;-62
2020/12/26 03:12:41;;;;;;;1.20;1.02;;;18.50;54.60;;;;;;5038416;28;20033;-62
2020/12/26 03:15:06;;;;;;;2.42;0.80;;;18.50;54.50;;;;;;5024178;28;20038;-62
2020/12/26 03:17:32;;;;;;;1.33;1.00;;;18.50;54.80;;;;;;5033950;28;20064;-62
2020/12/26 03:20:00;;;;;;;3.03;1.10;;;18.40;54.60;;;;;;5034755;28;20026;-62
2020/12/26 03:22:29;;;;;;;1.23;0.65;;;18.40;54.80;;;;;;5029800;28;20029;-62
2020/12/26 03:24:54;;;;;;;1.58;1.00;;;18.40;54.90;;;;;;5022362;28;20045;-63
2020/12/26 03:27:20;;;;;;;1.30;0.80;;;18.40;55.00;;;;;;5024334;28;20033;-62
2020/12/26 03:29:46;;;;;;;0.80;0.50;;;18.40;55.00;;;;;;5032700;28;20072;-62
2020/12/26 03:32:11;;;;;;;2.42;1.17;;;18.50;55.00;;;;;;5024900;28;20088;-63
2020/12/26 03:34:37;;;;;;;2.40;0.88;;;18.50;55.10;;;;;;5037476;28;20052;-63
2020/12/26 03:37:03;;;;;;;0.80;0.70;;;18.50;55.10;;;;;;5038677;28;20029;-62
2020/12/26 03:39:28;;;;;;;2.08;1.00;;;18.50;55.20;;;;;;5041663;28;20033;-62
2020/12/26 03:41:54;;;;;;;1.70;0.90;;;18.60;55.30;;;;;;5034451;28;20487;-62
2020/12/26 03:44:20;;;;;;;1.17;0.60;;;18.60;55.30;;;;;;5027804;28;20041;-63
2020/12/26 03:46:46;;;;;;;1.23;0.80;;;18.70;55.40;;;;;;5043643;28;20033;-62
2020/12/26 03:49:11;;;;;;;3.72;1.10;;;18.70;55.30;;;;;;5038273;28;20060;-62
2020/12/26 03:51:37;;;;;;;1.98;0.88;;;18.70;55.30;;;;;;5045861;28;20056;-62
2020/12/26 03:54:02;;;;;;;1.77;1.15;;;18.70;55.20;;;;;;5030208;28;20064;-62
2020/12/26 03:56:28;;;;;;;1.20;0.70;;;18.80;55.10;;;;;;5047205;28;20041;-62
2020/12/26 03:58:53;;;;;;;1.60;0.80;;;18.80;55.00;;;;;;5030329;28;20048;-62
2020/12/26 04:01:19;;;;;;;1.40;0.90;;;18.90;55.10;;;;;;5039968;28;20048;-62
2020/12/26 04:03:44;;;;;;;1.63;0.80;;;18.90;54.90;;;;;;5035832;28;20057;-62
2020/12/26 04:06:10;;;;;;;2.75;0.95;;;18.90;54.90;;;;;;5046203;28;20538;-63
2020/12/26 04:08:35;;;;;;;1.05;0.82;;;18.90;54.70;;;;;;5044609;28;20044;-63
2020/12/26 04:11:01;;;;;;;1.95;1.00;;;18.90;54.60;;;;;;5043349;28;20037;-62
2020/12/26 04:13:26;;;;;;;0.88;0.60;;;18.90;54.70;;;;;;5040425;28;20508;-62
2020/12/26 04:15:52;;;;;;;1.48;0.75;;;18.90;54.50;;;;;;5032438;28;20043;-62
2020/12/26 04:18:17;;;;;;;1.40;0.80;;;18.90;54.50;;;;;;5028386;28;20495;-62
2020/12/26 04:20:43;;;;;;;1.20;0.52;;;18.90;54.50;;;;;;5039371;28;20033;-62
2020/12/26 04:23:08;;;;;;;0.88;0.70;;;18.90;54.40;;;;;;5029585;28;20056;-62
2020/12/26 04:25:34;;;;;;;1.92;1.20;;;18.90;54.30;;;;;;5034896;28;20029;-62
2020/12/26 04:27:59;;;;;;;1.50;0.65;;;18.90;54.30;;;;;;5036520;28;20033;-62
2020/12/26 04:30:25;;;;;;;3.17;1.10;;;18.90;54.20;;;;;;5044332;28;20037;-62
2020/12/26 04:32:53;;;;;;;2.35;0.88;;;18.90;54.10;;;;;;5039307;28;20577;-62
2020/12/26 04:35:20;;;;;;;1.75;0.90;;;18.90;54.10;;;;;;5030493;28;20323;-62
2020/12/26 04:37:49;;;;;;;1.33;0.60;;;18.90;54.00;;;;;;5041416;28;20675;-62
2020/12/26 04:40:15;;;;;;;1.08;0.90;;;18.90;53.90;;;;;;5033285;28;20065;-62
2020/12/26 04:42:42;;;;;;;1.10;0.75;;;18.90;53.90;;;;;;5033083;28;20104;-62
2020/12/26 04:45:07;;;;;;;0.60;0.60;;;18.90;53.90;;;;;;5035775;28;20368;-62
2020/12/26 04:47:40;;;;;;;0.75;0.65;;;18.90;53.90;;;;;;5043889;28;20501;-62
2020/12/26 04:50:05;;;;;;;2.85;1.10;;;18.90;53.80;;;;;;5026213;28;20046;-62
2020/12/26 04:52:31;;;;;;;2.13;0.98;;;18.90;53.80;;;;;;5024739;28;20030;-62
2020/12/26 04:54:56;;;;;;;0.90;0.55;;;18.80;53.70;;;;;;5032853;28;20389;-62
2020/12/26 04:57:22;;;;;;;2.58;1.20;;;18.80;53.70;;;;;;5030947;28;20029;-62
2020/12/26 04:59:47;;;;;;;1.50;0.70;;;18.80;53.70;;;;;;5044958;28;20037;-62
2020/12/26 05:02:14;;;;;;;1.20;0.82;;;18.80;53.60;;;;;;5026824;28;20192;-62
2020/12/26 05:04:40;;;;;;;1.05;0.90;;;18.80;53.60;;;;;;5031990;28;20030;-62
2020/12/26 05:07:05;;;;;;;1.40;0.77;;;18.80;53.60;;;;;;5034326;28;20052;-62
2020/12/26 05:09:31;;;;;;;1.48;0.85;;;18.80;53.70;;;;;;5030223;28;20029;-62
2020/12/26 05:11:57;;;;;;;1.40;0.88;;;18.80;53.70;;;;;;5042843;28;20086;-62
2020/12/26 05:14:23;;;;;;;1.27;0.73;;;18.80;53.70;;;;;;5025089;28;20038;-62
2020/12/26 05:16:49;;;;;;;1.27;0.70;;;18.80;53.70;;;;;;5041662;28;20040;-62
2020/12/26 05:19:15;;;;;;;2.00;0.98;;;18.80;53.80;;;;;;5034826;28;20407;-62
2020/12/26 05:21:40;;;;;;;1.95;0.70;;;18.70;53.70;;;;;;5030782;28;20029;-62
2020/12/26 05:24:07;;;;;;;1.33;0.70;;;18.70;53.70;;;;;;5029386;28;20098;-63
2020/12/26 05:26:42;;;;;;;0.80;0.60;;;18.70;53.70;;;;;;5029891;28;20045;-62
2020/12/26 05:29:08;;;;;;;1.80;0.70;;;18.70;53.60;;;;;;5044134;28;20037;-62
2020/12/26 05:31:47;;;;;;;1.73;0.73;;;18.70;53.60;;;;;;5013036;28;20571;-62
2020/12/26 05:34:13;;;;;;;1.13;0.65;;;18.70;53.50;;;;;;5031847;28;20048;-62
2020/12/26 05:36:39;;;;;;;1.65;0.88;;;18.60;53.50;;;;;;5033537;28;20029;-61
2020/12/26 05:39:05;;;;;;;1.08;0.70;;;18.60;53.60;;;;;;5026713;28;20571;-62
2020/12/26 05:41:30;;;;;;;2.22;0.90;;;18.60;53.60;;;;;;5044792;28;20032;-62
2020/12/26 05:43:57;;;;;;;1.05;0.73;;;18.60;53.60;;;;;;5027511;28;20041;-62
2020/12/26 05:46:22;;;;;;;0.90;0.60;;;18.60;53.60;;;;;;5032805;28;20030;-63
2020/12/26 05:48:47;;;;;;;2.05;0.68;;;18.60;53.70;;;;;;5032066;28;20052;-64
2020/12/26 05:51:13;;;;;;;1.83;0.75;;;18.60;53.60;;;;;;5043409;28;20037;-63
2020/12/26 05:53:40;;;;;;;1.60;0.85;;;18.60;53.60;;;;;;5023871;28;20060;-63
2020/12/26 05:56:05;;;;;;;0.98;0.70;;;18.60;53.70;;;;;;5031699;28;20037;-62
2020/12/26 05:58:31;;;;;;;1.48;0.80;;;18.60;54.30;;;;;;5036292;28;20500;-62
2020/12/26 06:01:02;;;;;;;1.25;0.75;;;18.60;53.70;;;;;;5035454;28;20048;-62
2020/12/26 06:03:29;;;;;;;0.88;0.70;;;18.60;53.70;;;;;;5028461;28;20063;-62
2020/12/26 06:05:59;;;;;;;0.82;0.60;;;18.60;53.70;;;;;;5042405;28;20090;-63
2020/12/26 06:08:25;;;;;;;2.92;0.70;;;18.60;53.80;;;;;;5025758;28;20029;-63
2020/12/26 06:11:04;;;;;;;1.80;0.70;;;18.60;53.70;;;;;;5038519;28;20041;-63
2020/12/26 06:13:31;;;;;;;1.30;0.70;;;18.50;53.70;;;;;;5029957;28;20083;-64
2020/12/26 06:15:57;;;;;;;1.20;0.50;;;18.50;53.70;;;;;;5034821;28;20038;-63
2020/12/26 06:18:23;;;;;;;1.02;0.65;;;18.60;53.70;;;;;;5027452;28;20436;-64
2020/12/26 06:20:52;;;;;;;1.73;0.80;;;18.60;53.60;;;;;;5043667;28;20090;-62
2020/12/26 06:23:21;;;;;;;1.30;0.73;;;18.60;53.70;;;;;;5017022;28;20059;-63
2020/12/26 06:25:48;;;;;;;2.00;0.80;;;18.60;53.60;;;;;;5031006;28;20041;-62
2020/12/26 06:28:22;;;;;;;1.23;0.68;;;18.60;53.70;;;;;;5032580;28;20040;-63
2020/12/26 06:30:47;;;;;;;1.08;0.75;;;18.60;53.60;;;;;;5037610;28;20098;-62
2020/12/26 06:33:13;;;;;;;1.35;0.70;;;18.60;53.60;;;;;;5025396;28;20041;-62
2020/12/26 06:35:41;;;;;;;0.73;0.70;;;18.60;53.60;;;;;;5029587;28;20067;-62
2020/12/26 06:38:15;;;;;;;0.85;0.70;;;18.60;53.70;;;;;;5031018;28;20132;-63
2020/12/26 06:40:59;;;;;;;0.90;0.60;;;18.60;53.60;;;;;;5032512;28;20094;-63
2020/12/26 06:43:44;;;;;;;1.58;0.68;;;18.60;53.70;;;;;;5017138;28;20029;-63
2020/12/26 06:46:13;;;;;;;0.93;0.77;;;18.60;53.70;;;;;;5024293;28;20412;-63
2020/12/26 06:48:38;;;;;;;1.10;0.88;;;18.70;53.80;;;;;;5028854;28;20029;-63
2020/12/26 06:51:26;;;;;;;2.30;0.80;;;18.60;53.80;;;;;;5043672;28;20428;-62
2020/12/26 06:53:52;;;;;;;1.48;0.75;;;18.70;53.90;;;;;;5019123;28;20195;-63
2020/12/26 06:56:35;;;;;;;1.25;0.70;;;18.60;53.90;;;;;;5037038;28;20116;-63
2020/12/26 06:59:06;;;;;;;0.75;0.65;;;18.70;54.60;;;;;;5041993;28;20040;-63
2020/12/26 07:01:33;;;;;;;2.83;0.60;;;18.60;53.90;;;;;;5030135;28;21487;-62
2020/12/26 07:04:10;;;;;;;1.02;0.52;;;18.60;53.90;;;;;;5025114;28;21028;-62
2020/12/26 07:06:45;;;;;;;0.93;0.60;;;18.70;54.00;;;;;;5029952;28;20033;-63
2020/12/26 07:09:12;;;;;;;2.17;0.85;;;18.70;54.60;;;;;;5041685;28;20087;-62
2020/12/26 07:11:51;;;;;;;1.52;0.60;;;18.70;54.00;;;;;;5027393;28;20033;-63
2020/12/26 07:14:51;;;;;;;1.27;0.68;;;18.70;53.90;;;;;;5035901;28;20060;-62
2020/12/26 07:17:20;;;;;;;1.33;0.80;;;18.70;53.90;;;;;;5013278;28;20032;-62
2020/12/26 07:19:46;;;;;;;2.63;0.88;;;18.70;54.00;;;;;;5032507;28;20038;-60
2020/12/26 07:22:16;;;;;;;1.30;0.68;;;18.80;54.00;;;;;;5036664;28;20037;-62
2020/12/26 07:24:45;;;;;;;0.70;0.50;;;18.70;53.90;;;;;;5039841;28;20044;-61
2020/12/26 07:27:30;;;;;;;1.15;0.63;;;18.70;54.00;;;;;;5038835;28;20449;-60
2020/12/26 07:30:04;;;;;;;2.13;0.90;;;18.80;54.00;;;;;;5047261;28;20454;-61
2020/12/26 07:32:35;;;;;;;2.35;0.68;;;18.80;54.00;;;;;;5020482;28;20057;-62
2020/12/26 07:35:19;;;;;;;1.63;0.73;;;18.80;53.90;;;;;;5045270;28;20045;-61
2020/12/26 07:37:51;;;;;;;1.90;0.70;;;18.80;54.00;;;;;;5037566;28;20033;-60
2020/12/26 07:40:20;;;;;;;3.38;0.82;;;18.80;54.10;;;;;;5036414;28;20069;-61
2020/12/26 07:42:46;;;;;;;1.00;0.90;;;18.80;54.10;;;;;;5028764;28;20038;-61
2020/12/26 07:45:13;;;;;;;2.53;0.77;;;18.80;54.10;;;;;;5028848;28;20053;-61
2020/12/26 07:47:42;;;;;;;5.03;0.80;;;18.80;54.10;;;;;;5045333;28;20060;-61
2020/12/26 07:50:08;;;;;;;2.30;0.90;;;18.80;54.20;;;;;;5028884;28;20049;-61
2020/12/26 07:52:34;;;;;;;3.65;0.70;;;18.80;54.20;;;;;;5035235;28;20060;-60
2020/12/26 07:55:00;;;;;;;1.75;0.80;;;18.80;54.30;;;;;;5034487;28;20496;-61
2020/12/26 07:57:26;;;;;;;2.50;0.90;;;18.80;54.00;;;;;;5043181;28;20048;-62
2020/12/26 07:59:51;;;;;;;2.72;1.20;;;18.80;54.40;;;;;;5026318;28;20036;-60
2020/12/26 08:02:17;;;;;;;5.45;1.15;;;18.80;54.50;;;;;;5042470;28;20033;-60
2020/12/26 08:04:43;;;;;;;9.95;2.42;;;18.80;54.40;;;;;;5040131;28;20035;-61
2020/12/26 08:07:09;;;;;;;5.15;2.42;;;18.80;54.40;;;;;;5035816;28;20068;-59
2020/12/26 08:09:35;;;;;;;5.00;2.20;;;18.80;54.50;;;;;;5038325;28;20424;-60
2020/12/26 08:12:06;;;;;;;4.30;2.53;;;18.80;54.50;;;;;;5026744;28;20037;-62
2020/12/26 08:14:33;;;;;;;6.00;2.70;;;18.70;54.40;;;;;;5039777;28;20033;-61
2020/12/26 08:16:58;;;;;;;8.68;2.80;;;18.70;54.50;;;;;;5041972;28;20098;-61
2020/12/26 08:19:24;;;;;;;7.35;2.75;;;18.80;54.50;;;;;;5033064;28;20057;-61
2020/12/26 08:21:57;;;;;;;5.68;3.20;;;18.70;54.50;;;;;;5031279;28;20542;-61
2020/12/26 08:24:23;;;;;;;7.00;3.50;;;18.80;54.60;;;;;;5041397;28;20032;-61
2020/12/26 08:26:48;;;;;;;7.97;3.63;;;18.70;54.60;;;;;;5046517;28;20028;-61
2020/12/26 08:29:14;;;;;;;8.93;4.05;;;18.70;54.70;;;;;;5022805;28;20030;-61
2020/12/26 08:31:39;;;;;;;8.05;4.25;;;18.70;54.60;;;;;;5039433;28;20752;-62
2020/12/26 08:34:34;;;;;;;10.73;4.20;;;18.60;54.60;;;;;;5024611;28;20037;-61
2020/12/26 08:37:05;;;;;;;8.55;3.85;;;18.60;54.60;;;;;;5029186;28;20067;-62
2020/12/26 08:39:30;;;;;;;8.60;4.22;;;18.60;54.70;;;;;;5030239;28;20174;-61
2020/12/26 08:41:55;;;;;;;8.43;4.32;;;18.60;54.70;;;;;;5042234;28;20041;-62
2020/12/26 08:44:21;;;;;;;8.93;5.30;;;18.60;54.70;;;;;;5024748;28;20087;-61
2020/12/26 08:46:47;;;;;;;10.60;6.07;;;18.60;54.80;;;;;;5041689;28;20547;-61
2020/12/26 08:49:13;;;;;;;16.50;7.88;;;18.60;54.70;;;;;;5035852;28;20057;-61
2020/12/26 08:51:43;;;;;;;17.38;8.60;;;18.60;54.70;;;;;;5031072;28;20045;-61
2020/12/26 08:54:18;;;;;;;19.17;9.90;;;18.60;54.70;;;;;;5044894;28;20036;-62
2020/12/26 08:56:44;;;;;;;26.30;11.25;;;18.60;54.70;;;;;;5026351;28;20064;-62
2020/12/26 08:59:09;;;;;;;27.65;12.98;;;18.50;54.60;;;;;;5028012;28;20505;-63
2020/12/26 09:01:36;;;;;;;25.20;12.65;;;18.50;54.60;;;;;;5040471;28;20060;-61
2020/12/26 09:04:01;;;;;;;28.60;12.63;;;18.50;54.60;;;;;;5036341;28;20128;-61
2020/12/26 09:06:31;;;;;;;30.52;13.80;;;18.50;54.60;;;;;;5030054;28;20481;-60
2020/12/26 09:08:57;;;;;;;32.15;14.48;;;18.50;54.60;;;;;;5037215;28;20487;-60
2020/12/26 09:11:28;;;;;;;32.30;14.70;;;18.50;54.60;;;;;;5037527;28;20045;-59
2020/12/26 09:13:53;;;;;;;39.50;17.25;;;18.50;54.60;;;;;;5024621;28;20121;-60
2020/12/26 09:16:19;;;;;;;35.15;15.30;;;18.50;54.50;;;;;;5034803;28;20123;-58
2020/12/26 09:18:46;;;;;;;34.63;16.40;;;18.50;54.50;;;;;;5033293;28;20029;-60
2020/12/26 09:21:26;;;;;;;42.03;17.00;;;18.50;54.50;;;;;;5030212;28;20038;-59
2020/12/26 09:23:53;;;;;;;37.85;17.13;;;18.50;54.50;;;;;;5042917;28;20490;-59
2020/12/26 09:26:19;;;;;;;35.75;16.77;;;18.50;54.50;;;;;;5027103;28;20033;-58
2020/12/26 09:28:48;;;;;;;42.50;17.05;;;18.50;54.50;;;;;;5027533;28;20048;-60
2020/12/26 09:31:15;;;;;;;38.80;16.83;;;18.50;54.50;;;;;;5044033;28;20511;-58
2020/12/26 09:33:41;;;;;;;43.92;16.73;;;18.50;54.60;;;;;;5039186;28;20116;-58
2020/12/26 09:36:09;;;;;;;37.05;16.95;;;18.50;54.50;;;;;;5027059;28;20141;-59
2020/12/26 09:38:34;;;;;;;41.75;17.20;;;18.50;54.50;;;;;;5030411;28;20044;-59
2020/12/26 09:41:47;;;;;;;35.50;15.95;;;18.50;54.50;;;;;;5041243;28;20033;-56
2020/12/26 09:44:13;;;;;;;39.03;16.25;;;18.50;54.30;;;;;;5008561;28;20037;-59
2020/12/26 09:46:39;;;;;;;32.50;16.08;;;18.40;54.20;;;;;;5034139;28;20033;-61
2020/12/26 09:49:05;;;;;;;38.72;14.77;;;18.50;54.10;;;;;;5030899;28;20052;-62
2020/12/26 09:51:30;;;;;;;34.40;15.15;;;18.40;54.00;;;;;;5035894;28;20037;-61
2020/12/26 09:53:56;;;;;;;32.00;15.10;;;18.40;54.00;;;;;;5044764;28;20067;-61
2020/12/26 09:56:21;;;;;;;32.28;14.75;;;18.40;54.00;;;;;;5028991;28;20453;-63
2020/12/26 09:58:48;;;;;;;28.25;13.75;;;18.50;54.20;;;;;;5030704;28;20034;-63
2020/12/26 10:01:17;;;;;;;33.70;13.77;;;18.40;54.10;;;;;;5024182;28;20049;-62
2020/12/26 10:03:43;;;;;;;31.35;13.05;;;18.40;54.20;;;;;;5025364;28;20523;-62
2020/12/26 10:06:18;;;;;;;26.60;14.50;;;18.40;54.20;;;;;;5026251;28;20060;-61
2020/12/26 10:08:44;;;;;;;31.17;13.57;;;18.40;54.20;;;;;;5045205;28;20033;-62
2020/12/26 10:11:13;;;;;;;33.72;13.23;;;18.40;54.40;;;;;;5029044;28;20048;-63
2020/12/26 10:13:39;;;;;;;30.88;13.02;;;18.40;54.30;;;;;;5037243;28;20108;-59
2020/12/26 10:16:05;;;;;;;24.17;11.48;;;18.40;54.30;;;;;;5053161;28;20460;-62
2020/12/26 10:18:31;;;;;;;22.80;11.35;;;18.30;54.40;;;;;;5042833;28;20036;-62
2020/12/26 10:20:57;;;;;;;27.17;12.02;;;18.30;54.50;;;;;;5028741;28;20037;-61
2020/12/26 10:23:23;;;;;;;21.00;10.50;;;18.40;54.70;;;;;;5046355;28;20093;-61
2020/12/26 10:25:48;;;;;;;22.73;10.90;;;18.40;54.70;;;;;;5033986;28;20057;-60
2020/12/26 10:28:14;;;;;;;22.52;9.65;;;18.40;54.70;;;;;;5039238;28;20126;-59
2020/12/26 10:30:39;;;;;;;21.77;9.57;;;18.40;54.60;;;;;;5039307;28;20041;-60
2020/12/26 10:33:05;;;;;;;19.58;9.27;;;18.40;54.60;;;;;;5033009;28;20087;-60
2020/12/26 10:35:30;;;;;;;21.33;8.75;;;18.40;54.60;;;;;;5038636;28;20033;-61
2020/12/26 10:37:56;;;;;;;21.67;9.30;;;18.40;54.90;;;;;;5038900;28;20061;-62
2020/12/26 10:40:21;;;;;;;28.08;14.95;;;18.40;55.00;;;;;;5033299;28;20033;-61
2020/12/26 10:42:47;;;;;;;51.15;24.73;;;18.40;55.30;;;;;;5043726;28;20120;-61
2020/12/26 10:45:12;;;;;;;58.33;34.25;;;18.40;55.40;;;;;;5047602;28;20037;-60
2020/12/26 10:47:38;;;;;;;67.07;41.17;;;18.40;55.50;;;;;;5023993;28;20041;-62
2020/12/26 10:50:03;;;;;;;77.25;47.72;;;18.40;55.70;;;;;;5036550;28;20063;-64
2020/12/26 10:52:29;;;;;;;69.95;44.67;;;18.40;55.90;;;;;;5039308;28;20052;-62
2020/12/26 10:54:55;;;;;;;71.55;42.50;;;18.40;56.00;;;;;;5024336;28;20060;-62
2020/12/26 10:57:20;;;;;;;60.45;40.53;;;18.40;55.90;;;;;;5042699;28;20052;-62
2020/12/26 10:59:46;;;;;;;58.33;37.40;;;18.40;55.90;;;;;;5029871;28;20033;-62
2020/12/26 11:02:11;;;;;;;52.95;34.15;;;18.40;55.90;;;;;;5039826;28;20032;-61
2020/12/26 11:04:37;;;;;;;49.17;33.53;;;18.40;55.90;;;;;;5043612;28;20053;-62
2020/12/26 11:07:03;;;;;;;51.13;32.90;;;18.40;55.90;;;;;;5025844;28;20175;-60
2020/12/26 11:09:29;;;;;;;49.60;30.27;;;18.40;55.90;;;;;;5043825;28;20033;-59
2020/12/26 11:11:54;;;;;;;42.80;28.42;;;18.40;56.00;;;;;;5026180;28;20037;-59
2020/12/26 11:14:20;;;;;;;45.33;28.00;;;18.50;56.40;;;;;;5035854;28;20056;-60
2020/12/26 11:16:52;;;;;;;46.47;26.55;;;18.50;56.70;;;;;;5035477;28;20115;-61
2020/12/26 11:19:17;;;;;;;46.95;26.35;;;18.50;56.90;;;;;;5041476;28;20064;-59
2020/12/26 11:21:43;;;;;;;41.30;24.30;;;18.50;57.00;;;;;;5030197;28;20067;-61
2020/12/26 11:24:10;;;;;;;41.13;22.88;;;18.50;57.00;;;;;;5025124;28;20049;-61
2020/12/26 11:26:36;;;;;;;37.05;20.02;;;18.50;57.10;;;;;;5037184;28;20503;-61
2020/12/26 11:29:01;;;;;;;35.70;19.67;;;18.60;57.90;;;;;;5049085;28;20048;-61
2020/12/26 11:31:27;;;;;;;32.97;18.58;;;18.60;58.10;;;;;;5027522;28;20040;-59
2020/12/26 11:33:52;;;;;;;30.42;16.73;;;18.60;58.60;;;;;;5042468;28;20064;-63
2020/12/26 11:36:25;;;;;;;28.40;15.95;;;18.60;58.90;;;;;;5033690;28;20087;-63
2020/12/26 11:38:51;;;;;;;25.67;15.75;;;18.60;59.40;;;;;;5029729;28;20520;-61
2020/12/26 11:41:17;;;;;;;26.80;15.60;;;18.60;59.70;;;;;;5032395;28;20060;-60
2020/12/26 11:43:43;;;;;;;31.17;14.73;;;18.70;60.30;;;;;;5039726;28;20042;-62
2020/12/26 11:46:09;;;;;;;23.10;13.85;;;18.70;61.50;;;;;;5029064;28;20161;-63
2020/12/26 11:48:34;;;;;;;24.23;15.13;;;18.70;61.30;;;;;;5042454;28;20048;-62
2020/12/26 11:51:00;;;;;;;26.48;13.85;;;18.70;61.50;;;;;;5026769;28;20042;-62
2020/12/26 11:53:25;;;;;;;27.80;14.15;;;18.60;61.50;;;;;;5036928;28;20036;-62
2020/12/26 11:55:51;;;;;;;22.92;12.88;;;18.70;61.70;;;;;;5035947;28;20356;-63
2020/12/26 11:58:16;;;;;;;22.13;13.63;;;18.60;61.50;;;;;;5029424;28;20561;-63
2020/12/26 12:00:42;;;;;;;20.20;12.30;;;18.60;61.30;;;;;;5041560;28;20532;-63
2020/12/26 12:03:07;;;;;;;18.08;11.45;;;18.70;61.20;;;;;;5041214;28;20040;-63
2020/12/26 12:05:33;;;;;;;22.63;13.25;;;18.60;61.20;;;;;;5033116;28;20038;-64
2020/12/26 12:07:58;;;;;;;23.60;13.02;;;18.60;61.00;;;;;;5035099;28;20041;-63
2020/12/26 12:10:24;;;;;;;21.17;12.30;;;18.60;60.80;;;;;;5058266;28;20095;-61
2020/12/26 12:12:49;;;;;;;21.85;13.63;;;18.60;61.00;;;;;;5027033;28;20036;-64
2020/12/26 12:15:15;;;;;;;22.90;12.07;;;18.80;59.90;;;;;;5039341;28;20033;-63
2020/12/26 12:17:40;;;;;;;23.90;13.25;;;18.80;59.50;;;;;;5034077;28;20040;-62
2020/12/26 12:20:06;;;;;;;27.85;11.90;;;18.80;59.70;;;;;;5028226;28;20467;-62
2020/12/26 12:22:31;;;;;;;26.98;13.15;;;18.70;59.90;;;;;;5031193;28;20395;-62
2020/12/26 12:24:57;;;;;;;21.98;12.18;;;18.70;60.00;;;;;;5037650;28;20040;-62
2020/12/26 12:27:22;;;;;;;72.72;17.88;;;18.70;60.60;;;;;;5040080;28;20033;-64
2020/12/26 12:29:48;;;;;;;52.25;14.90;;;18.80;59.90;;;;;;5037587;28;20067;-66
2020/12/26 12:32:16;;;;;;;46.63;14.98;;;18.90;59.60;;;;;;5038200;28;20030;-64
2020/12/26 12:34:42;;;;;;;33.15;14.18;;;18.90;60.10;;;;;;5030507;28;20469;-66
2020/12/26 12:37:09;;;;;;;28.15;12.45;;;18.90;59.60;;;;;;5026445;28;20063;-67
2020/12/26 12:39:34;;;;;;;27.17;13.25;;;18.80;59.50;;;;;;5035126;28;20040;-66